Upperville, New York
Current Conditions -  °F | °C
As of 7:35 AM on Monday 26 Jan 2015 (Local Time) from KN03 Reporting Station
Overcast Overcast  
Wind Chill: 10°   Ceiling: 4000
Heat Index: 10°   Visibility: 10mi
Dew Point:   Wind: 0mph
Humidity: 67%   Direction: NA
Pressure: 29.94"   Gusts: NA
Location:  42.6914°N, 75.6351°W
Report Text: KN03 261235Z AUTO 00000KT 10SM OVC040 M12/M17 A2994 RMK AO2
Loading
Personal Weather Stations






























Interactive Weather Map New forecast layout! Learn more

10-Day Weather Forecast

Advertisements
Track Severe Weather on mobile